sensor_id;sensor_type;location;lat;lon;timestamp;P1;durP1;ratioP1;P2;durP2;ratioP2
20589;SDS011;10453;50.810;12.540;2023-04-24T00:00:19;1.67;;;1.33;;
20589;SDS011;10453;50.810;12.540;2023-04-24T00:04:37;3.45;;;1.35;;
20589;SDS011;10453;50.810;12.540;2023-04-24T00:08:58;2.50;;;1.40;;
20589;SDS011;10453;50.810;12.540;2023-04-24T00:13:17;9.07;;;2.05;;
20589;SDS011;10453;50.810;12.540;2023-04-24T00:17:35;2.13;;;1.48;;
20589;SDS011;10453;50.810;12.540;2023-04-24T00:21:53;1.75;;;1.35;;
20589;SDS011;10453;50.810;12.540;2023-04-24T00:26:12;2.53;;;1.58;;
20589;SDS011;10453;50.810;12.540;2023-04-24T00:30:30;1.92;;;1.40;;
20589;SDS011;10453;50.810;12.540;2023-04-24T00:34:47;2.67;;;1.48;;
20589;SDS011;10453;50.810;12.540;2023-04-24T00:39:05;2.42;;;1.65;;
20589;SDS011;10453;50.810;12.540;2023-04-24T00:43:23;3.93;;;1.63;;
20589;SDS011;10453;50.810;12.540;2023-04-24T00:47:41;2.80;;;1.42;;
20589;SDS011;10453;50.810;12.540;2023-04-24T00:51:59;4.60;;;1.70;;
20589;SDS011;10453;50.810;12.540;2023-04-24T00:56:16;2.30;;;1.80;;
20589;SDS011;10453;50.810;12.540;2023-04-24T01:00:34;3.25;;;1.67;;
20589;SDS011;10453;50.810;12.540;2023-04-24T01:04:51;3.13;;;1.83;;
20589;SDS011;10453;50.810;12.540;2023-04-24T01:09:09;1.70;;;1.60;;
20589;SDS011;10453;50.810;12.540;2023-04-24T01:13:28;3.40;;;1.88;;
20589;SDS011;10453;50.810;12.540;2023-04-24T01:17:46;3.17;;;1.67;;
20589;SDS011;10453;50.810;12.540;2023-04-24T01:22:08;2.50;;;2.00;;
20589;SDS011;10453;50.810;12.540;2023-04-24T01:26:30;2.42;;;1.98;;
20589;SDS011;10453;50.810;12.540;2023-04-24T01:30:47;3.25;;;1.92;;
20589;SDS011;10453;50.810;12.540;2023-04-24T01:35:05;3.85;;;2.28;;
20589;SDS011;10453;50.810;12.540;2023-04-24T01:39:23;1.73;;;1.63;;
20589;SDS011;10453;50.810;12.540;2023-04-24T01:43:43;2.40;;;1.73;;
20589;SDS011;10453;50.810;12.540;2023-04-24T01:48:00;3.35;;;2.00;;
20589;SDS011;10453;50.810;12.540;2023-04-24T01:52:18;2.35;;;2.03;;
20589;SDS011;10453;50.810;12.540;2023-04-24T01:56:35;2.20;;;2.00;;
20589;SDS011;10453;50.810;12.540;2023-04-24T02:00:56;3.00;;;2.20;;
20589;SDS011;10453;50.810;12.540;2023-04-24T02:05:15;2.95;;;2.20;;
20589;SDS011;10453;50.810;12.540;2023-04-24T02:09:33;2.97;;;2.08;;
20589;SDS011;10453;50.810;12.540;2023-04-24T02:13:51;3.28;;;2.17;;
20589;SDS011;10453;50.810;12.540;2023-04-24T02:18:09;1.85;;;1.63;;
20589;SDS011;10453;50.810;12.540;2023-04-24T02:22:28;2.00;;;1.80;;
20589;SDS011;10453;50.810;12.540;2023-04-24T02:26:46;2.30;;;2.10;;
20589;SDS011;10453;50.810;12.540;2023-04-24T02:31:03;3.95;;;2.30;;
20589;SDS011;10453;50.810;12.540;2023-04-24T02:35:22;3.28;;;1.80;;
20589;SDS011;10453;50.810;12.540;2023-04-24T02:39:39;2.93;;;1.80;;
20589;SDS011;10453;50.810;12.540;2023-04-24T02:43:58;3.55;;;1.70;;
20589;SDS011;10453;50.810;12.540;2023-04-24T02:48:19;2.53;;;1.98;;
20589;SDS011;10453;50.810;12.540;2023-04-24T02:52:37;3.22;;;2.20;;
20589;SDS011;10453;50.810;12.540;2023-04-24T02:56:55;3.65;;;2.00;;
20589;SDS011;10453;50.810;12.540;2023-04-24T03:01:13;5.68;;;2.30;;
20589;SDS011;10453;50.810;12.540;2023-04-24T03:05:31;3.20;;;2.55;;
20589;SDS011;10453;50.810;12.540;2023-04-24T03:09:48;3.55;;;2.30;;
20589;SDS011;10453;50.810;12.540;2023-04-24T03:14:06;2.85;;;2.30;;
20589;SDS011;10453;50.810;12.540;2023-04-24T03:18:24;4.90;;;2.42;;
20589;SDS011;10453;50.810;12.540;2023-04-24T03:22:42;2.93;;;2.50;;
20589;SDS011;10453;50.810;12.540;2023-04-24T03:26:59;3.28;;;2.35;;
20589;SDS011;10453;50.810;12.540;2023-04-24T03:31:16;3.38;;;2.85;;
20589;SDS011;10453;50.810;12.540;2023-04-24T03:35:34;3.35;;;2.60;;
20589;SDS011;10453;50.810;12.540;2023-04-24T03:39:51;3.13;;;2.70;;
20589;SDS011;10453;50.810;12.540;2023-04-24T03:44:09;3.65;;;2.72;;
20589;SDS011;10453;50.810;12.540;2023-04-24T03:48:26;6.53;;;3.05;;
20589;SDS011;10453;50.810;12.540;2023-04-24T03:52:43;3.42;;;2.90;;
20589;SDS011;10453;50.810;12.540;2023-04-24T03:57:00;6.55;;;3.00;;
20589;SDS011;10453;50.810;12.540;2023-04-24T04:01:18;3.72;;;3.13;;
20589;SDS011;10453;50.810;12.540;2023-04-24T04:05:37;3.47;;;2.90;;
20589;SDS011;10453;50.810;12.540;2023-04-24T04:09:54;5.53;;;2.92;;
20589;SDS011;10453;50.810;12.540;2023-04-24T04:14:11;8.65;;;3.33;;
20589;SDS011;10453;50.810;12.540;2023-04-24T04:18:29;4.82;;;3.35;;
20589;SDS011;10453;50.810;12.540;2023-04-24T04:22:46;4.88;;;3.28;;
20589;SDS011;10453;50.810;12.540;2023-04-24T04:27:04;5.78;;;3.08;;
20589;SDS011;10453;50.810;12.540;2023-04-24T04:31:22;5.50;;;3.05;;
20589;SDS011;10453;50.810;12.540;2023-04-24T04:35:40;3.83;;;2.80;;
20589;SDS011;10453;50.810;12.540;2023-04-24T04:39:57;4.88;;;2.88;;
20589;SDS011;10453;50.810;12.540;2023-04-24T04:44:15;4.68;;;2.83;;
20589;SDS011;10453;50.810;12.540;2023-04-24T04:48:32;2.92;;;2.60;;
20589;SDS011;10453;50.810;12.540;2023-04-24T04:52:53;4.57;;;2.78;;
20589;SDS011;10453;50.810;12.540;2023-04-24T04:57:10;4.32;;;2.63;;
20589;SDS011;10453;50.810;12.540;2023-04-24T05:01:27;7.13;;;2.30;;
20589;SDS011;10453;50.810;12.540;2023-04-24T05:05:45;2.60;;;2.38;;
20589;SDS011;10453;50.810;12.540;2023-04-24T05:10:02;3.35;;;2.47;;
20589;SDS011;10453;50.810;12.540;2023-04-24T05:14:20;4.10;;;2.10;;
20589;SDS011;10453;50.810;12.540;2023-04-24T05:18:38;3.60;;;2.20;;
20589;SDS011;10453;50.810;12.540;2023-04-24T05:22:56;4.85;;;2.45;;
20589;SDS011;10453;50.810;12.540;2023-04-24T05:27:13;4.03;;;2.70;;
20589;SDS011;10453;50.810;12.540;2023-04-24T05:31:31;4.30;;;2.60;;
20589;SDS011;10453;50.810;12.540;2023-04-24T05:35:49;3.20;;;1.92;;
20589;SDS011;10453;50.810;12.540;2023-04-24T05:40:06;4.07;;;1.83;;
20589;SDS011;10453;50.810;12.540;2023-04-24T05:44:24;10.00;;;2.23;;
20589;SDS011;10453;50.810;12.540;2023-04-24T05:48:42;5.43;;;2.53;;
20589;SDS011;10453;50.810;12.540;2023-04-24T05:52:59;5.20;;;2.33;;
20589;SDS011;10453;50.810;12.540;2023-04-24T05:57:19;3.03;;;1.88;;
20589;SDS011;10453;50.810;12.540;2023-04-24T06:01:36;4.68;;;2.15;;
20589;SDS011;10453;50.810;12.540;2023-04-24T06:05:53;4.00;;;1.83;;
20589;SDS011;10453;50.810;12.540;2023-04-24T06:10:12;5.68;;;1.70;;
20589;SDS011;10453;50.810;12.540;2023-04-24T06:14:31;3.47;;;2.00;;
20589;SDS011;10453;50.810;12.540;2023-04-24T06:18:48;2.85;;;1.73;;
20589;SDS011;10453;50.810;12.540;2023-04-24T06:23:05;3.45;;;1.85;;
20589;SDS011;10453;50.810;12.540;2023-04-24T06:27:23;3.80;;;1.90;;
20589;SDS011;10453;50.810;12.540;2023-04-24T06:31:40;2.38;;;1.50;;
20589;SDS011;10453;50.810;12.540;2023-04-24T06:35:58;4.25;;;1.65;;
20589;SDS011;10453;50.810;12.540;2023-04-24T06:40:16;3.75;;;1.85;;
20589;SDS011;10453;50.810;12.540;2023-04-24T06:44:35;4.25;;;1.75;;
20589;SDS011;10453;50.810;12.540;2023-04-24T06:48:57;3.80;;;2.00;;
20589;SDS011;10453;50.810;12.540;2023-04-24T06:53:15;7.13;;;2.22;;
20589;SDS011;10453;50.810;12.540;2023-04-24T06:57:32;3.53;;;1.75;;
20589;SDS011;10453;50.810;12.540;2023-04-24T07:01:50;5.13;;;2.00;;
20589;SDS011;10453;50.810;12.540;2023-04-24T07:06:10;4.97;;;2.05;;
20589;SDS011;10453;50.810;12.540;2023-04-24T07:10:29;2.97;;;1.70;;
20589;SDS011;10453;50.810;12.540;2023-04-24T07:14:47;3.08;;;1.88;;
20589;SDS011;10453;50.810;12.540;2023-04-24T07:19:05;3.63;;;1.40;;
20589;SDS011;10453;50.810;12.540;2023-04-24T07:23:23;2.33;;;1.50;;
20589;SDS011;10453;50.810;12.540;2023-04-24T07:27:41;3.35;;;1.80;;
20589;SDS011;10453;50.810;12.540;2023-04-24T07:31:59;5.93;;;1.63;;
20589;SDS011;10453;50.810;12.540;2023-04-24T07:36:19;3.25;;;1.45;;
20589;SDS011;10453;50.810;12.540;2023-04-24T07:40:37;2.55;;;1.65;;
20589;SDS011;10453;50.810;12.540;2023-04-24T07:44:54;3.92;;;1.35;;
20589;SDS011;10453;50.810;12.540;2023-04-24T07:49:11;3.15;;;1.35;;
20589;SDS011;10453;50.810;12.540;2023-04-24T07:53:30;5.30;;;1.63;;
20589;SDS011;10453;50.810;12.540;2023-04-24T07:57:48;3.08;;;1.45;;
20589;SDS011;10453;50.810;12.540;2023-04-24T08:02:05;2.85;;;1.38;;
20589;SDS011;10453;50.810;12.540;2023-04-24T08:06:24;2.90;;;1.17;;
20589;SDS011;10453;50.810;12.540;2023-04-24T08:10:44;2.60;;;1.33;;
20589;SDS011;10453;50.810;12.540;2023-04-24T08:15:02;3.85;;;1.00;;
20589;SDS011;10453;50.810;12.540;2023-04-24T08:19:20;3.08;;;1.10;;
20589;SDS011;10453;50.810;12.540;2023-04-24T08:23:38;1.60;;;1.10;;
20589;SDS011;10453;50.810;12.540;2023-04-24T08:27:55;1.23;;;1.10;;
20589;SDS011;10453;50.810;12.540;2023-04-24T08:32:13;1.63;;;1.10;;
20589;SDS011;10453;50.810;12.540;2023-04-24T08:36:30;1.98;;;0.75;;
20589;SDS011;10453;50.810;12.540;2023-04-24T08:41:01;2.30;;;1.20;;
20589;SDS011;10453;50.810;12.540;2023-04-24T08:45:21;2.83;;;1.00;;
20589;SDS011;10453;50.810;12.540;2023-04-24T08:49:38;2.13;;;0.75;;
20589;SDS011;10453;50.810;12.540;2023-04-24T08:53:56;1.63;;;0.77;;
20589;SDS011;10453;50.810;12.540;2023-04-24T08:58:15;16.65;;;2.30;;
20589;SDS011;10453;50.810;12.540;2023-04-24T09:06:53;3.20;;;1.10;;
20589;SDS011;10453;50.810;12.540;2023-04-24T09:11:13;2.35;;;0.57;;
20589;SDS011;10453;50.810;12.540;2023-04-24T09:15:31;1.48;;;0.80;;
20589;SDS011;10453;50.810;12.540;2023-04-24T09:19:49;1.30;;;0.50;;
20589;SDS011;10453;50.810;12.540;2023-04-24T09:24:08;1.45;;;0.70;;
20589;SDS011;10453;50.810;12.540;2023-04-24T09:28:36;2.95;;;0.80;;
20589;SDS011;10453;50.810;12.540;2023-04-24T09:37:29;1.70;;;0.70;;
20589;SDS011;10453;50.810;12.540;2023-04-24T09:46:06;3.70;;;0.70;;
20589;SDS011;10453;50.810;12.540;2023-04-24T09:50:25;2.65;;;0.85;;
20589;SDS011;10453;50.810;12.540;2023-04-24T09:54:43;1.45;;;1.00;;
20589;SDS011;10453;50.810;12.540;2023-04-24T09:59:10;1.30;;;0.70;;
20589;SDS011;10453;50.810;12.540;2023-04-24T10:03:32;3.85;;;0.70;;
20589;SDS011;10453;50.810;12.540;2023-04-24T10:07:51;1.08;;;0.70;;
20589;SDS011;10453;50.810;12.540;2023-04-24T10:12:08;1.05;;;0.80;;
20589;SDS011;10453;50.810;12.540;2023-04-24T10:16:25;1.67;;;0.90;;
20589;SDS011;10453;50.810;12.540;2023-04-24T10:20:45;1.15;;;0.75;;
20589;SDS011;10453;50.810;12.540;2023-04-24T10:25:03;3.38;;;0.80;;
20589;SDS011;10453;50.810;12.540;2023-04-24T10:29:22;1.83;;;0.93;;
20589;SDS011;10453;50.810;12.540;2023-04-24T10:33:42;1.65;;;0.80;;
20589;SDS011;10453;50.810;12.540;2023-04-24T10:42:23;4.35;;;1.13;;
20589;SDS011;10453;50.810;12.540;2023-04-24T10:46:46;1.15;;;0.80;;
20589;SDS011;10453;50.810;12.540;2023-04-24T10:51:12;4.25;;;1.00;;
20589;SDS011;10453;50.810;12.540;2023-04-24T10:55:44;2.53;;;1.00;;
20589;SDS011;10453;50.810;12.540;2023-04-24T11:00:20;1.08;;;0.90;;
20589;SDS011;10453;50.810;12.540;2023-04-24T11:04:38;2.08;;;1.10;;
20589;SDS011;10453;50.810;12.540;2023-04-24T11:08:59;0.90;;;0.80;;
20589;SDS011;10453;50.810;12.540;2023-04-24T11:18:15;4.55;;;1.10;;
20589;SDS011;10453;50.810;12.540;2023-04-24T11:22:33;1.95;;;1.20;;
20589;SDS011;10453;50.810;12.540;2023-04-24T11:26:56;3.83;;;1.25;;
20589;SDS011;10453;50.810;12.540;2023-04-24T11:31:39;2.60;;;0.90;;
20589;SDS011;10453;50.810;12.540;2023-04-24T11:35:58;1.27;;;1.00;;
20589;SDS011;10453;50.810;12.540;2023-04-24T11:40:16;1.20;;;1.00;;
20589;SDS011;10453;50.810;12.540;2023-04-24T11:44:39;1.35;;;1.15;;
20589;SDS011;10453;50.810;12.540;2023-04-24T11:48:59;2.00;;;1.02;;
20589;SDS011;10453;50.810;12.540;2023-04-24T11:53:18;1.52;;;1.08;;
20589;SDS011;10453;50.810;12.540;2023-04-24T11:57:38;2.35;;;1.45;;
20589;SDS011;10453;50.810;12.540;2023-04-24T12:01:55;2.40;;;1.30;;
20589;SDS011;10453;50.810;12.540;2023-04-24T12:06:13;2.85;;;1.25;;
20589;SDS011;10453;50.810;12.540;2023-04-24T12:10:31;1.80;;;1.30;;
20589;SDS011;10453;50.810;12.540;2023-04-24T12:14:51;2.22;;;1.17;;
20589;SDS011;10453;50.810;12.540;2023-04-24T12:19:10;1.08;;;0.98;;
20589;SDS011;10453;50.810;12.540;2023-04-24T12:23:34;2.50;;;0.95;;
20589;SDS011;10453;50.810;12.540;2023-04-24T12:32:21;2.13;;;1.02;;
20589;SDS011;10453;50.810;12.540;2023-04-24T12:36:39;2.33;;;1.30;;
20589;SDS011;10453;50.810;12.540;2023-04-24T12:41:07;1.57;;;1.20;;
20589;SDS011;10453;50.810;12.540;2023-04-24T12:45:26;1.63;;;1.20;;
20589;SDS011;10453;50.810;12.540;2023-04-24T12:49:44;1.70;;;1.20;;
20589;SDS011;10453;50.810;12.540;2023-04-24T12:54:01;2.47;;;1.45;;
20589;SDS011;10453;50.810;12.540;2023-04-24T12:58:19;1.55;;;1.35;;
20589;SDS011;10453;50.810;12.540;2023-04-24T13:02:37;2.13;;;1.42;;
20589;SDS011;10453;50.810;12.540;2023-04-24T13:06:55;1.33;;;1.23;;
20589;SDS011;10453;50.810;12.540;2023-04-24T13:11:12;2.55;;;1.30;;
20589;SDS011;10453;50.810;12.540;2023-04-24T13:15:30;2.53;;;1.20;;
20589;SDS011;10453;50.810;12.540;2023-04-24T13:19:49;5.97;;;1.27;;
20589;SDS011;10453;50.810;12.540;2023-04-24T13:24:08;3.13;;;1.40;;
20589;SDS011;10453;50.810;12.540;2023-04-24T13:28:26;12.40;;;2.37;;
20589;SDS011;10453;50.810;12.540;2023-04-24T13:32:44;1.60;;;1.10;;
20589;SDS011;10453;50.810;12.540;2023-04-24T13:37:02;2.75;;;1.13;;
20589;SDS011;10453;50.810;12.540;2023-04-24T13:41:20;4.38;;;1.05;;
20589;SDS011;10453;50.810;12.540;2023-04-24T13:45:38;3.65;;;1.17;;
20589;SDS011;10453;50.810;12.540;2023-04-24T13:49:58;1.20;;;1.10;;
20589;SDS011;10453;50.810;12.540;2023-04-24T13:54:15;1.20;;;1.10;;
20589;SDS011;10453;50.810;12.540;2023-04-24T13:58:33;1.25;;;1.13;;
20589;SDS011;10453;50.810;12.540;2023-04-24T14:02:52;5.15;;;1.00;;
20589;SDS011;10453;50.810;12.540;2023-04-24T14:07:10;1.10;;;1.00;;
20589;SDS011;10453;50.810;12.540;2023-04-24T14:11:28;1.27;;;1.17;;
20589;SDS011;10453;50.810;12.540;2023-04-24T14:15:46;2.00;;;1.23;;
20589;SDS011;10453;50.810;12.540;2023-04-24T14:20:04;2.45;;;1.20;;
20589;SDS011;10453;50.810;12.540;2023-04-24T14:24:21;1.73;;;1.30;;
20589;SDS011;10453;50.810;12.540;2023-04-24T14:28:39;1.70;;;1.33;;
20589;SDS011;10453;50.810;12.540;2023-04-24T14:32:57;1.80;;;1.67;;
20589;SDS011;10453;50.810;12.540;2023-04-24T14:41:33;2.25;;;1.30;;
20589;SDS011;10453;50.810;12.540;2023-04-24T14:45:52;2.15;;;1.50;;
20589;SDS011;10453;50.810;12.540;2023-04-24T14:50:10;4.20;;;1.40;;
20589;SDS011;10453;50.810;12.540;2023-04-24T14:54:32;3.47;;;1.10;;
20589;SDS011;10453;50.810;12.540;2023-04-24T14:58:49;2.25;;;1.00;;
20589;SDS011;10453;50.810;12.540;2023-04-24T15:03:06;2.55;;;1.17;;
20589;SDS011;10453;50.810;12.540;2023-04-24T15:07:24;1.10;;;1.00;;
20589;SDS011;10453;50.810;12.540;2023-04-24T15:11:42;2.88;;;1.10;;
20589;SDS011;10453;50.810;12.540;2023-04-24T15:15:59;1.77;;;1.30;;
20589;SDS011;10453;50.810;12.540;2023-04-24T15:20:17;2.38;;;1.20;;
20589;SDS011;10453;50.810;12.540;2023-04-24T15:24:34;1.75;;;1.40;;
20589;SDS011;10453;50.810;12.540;2023-04-24T15:28:52;2.35;;;1.00;;
20589;SDS011;10453;50.810;12.540;2023-04-24T15:33:09;1.83;;;1.27;;
20589;SDS011;10453;50.810;12.540;2023-04-24T15:37:27;4.07;;;1.70;;
20589;SDS011;10453;50.810;12.540;2023-04-24T15:41:44;2.03;;;1.50;;
20589;SDS011;10453;50.810;12.540;2023-04-24T15:46:03;4.13;;;1.38;;
20589;SDS011;10453;50.810;12.540;2023-04-24T15:50:21;2.70;;;1.30;;
20589;SDS011;10453;50.810;12.540;2023-04-24T15:58:57;6.35;;;2.13;;
20589;SDS011;10453;50.810;12.540;2023-04-24T16:03:15;3.95;;;1.92;;
20589;SDS011;10453;50.810;12.540;2023-04-24T16:07:33;2.15;;;1.95;;
20589;SDS011;10453;50.810;12.540;2023-04-24T16:11:51;1.50;;;1.40;;
20589;SDS011;10453;50.810;12.540;2023-04-24T16:16:09;1.42;;;1.20;;
20589;SDS011;10453;50.810;12.540;2023-04-24T16:20:27;1.73;;;1.60;;
20589;SDS011;10453;50.810;12.540;2023-04-24T16:24:44;1.25;;;1.15;;
20589;SDS011;10453;50.810;12.540;2023-04-24T16:29:04;1.73;;;1.63;;
20589;SDS011;10453;50.810;12.540;2023-04-24T16:33:21;1.70;;;1.40;;
20589;SDS011;10453;50.810;12.540;2023-04-24T16:37:39;2.58;;;1.30;;
20589;SDS011;10453;50.810;12.540;2023-04-24T16:41:58;1.00;;;0.90;;
20589;SDS011;10453;50.810;12.540;2023-04-24T16:46:18;2.30;;;1.13;;
20589;SDS011;10453;50.810;12.540;2023-04-24T16:50:36;1.02;;;0.93;;
20589;SDS011;10453;50.810;12.540;2023-04-24T16:54:53;1.10;;;1.00;;
20589;SDS011;10453;50.810;12.540;2023-04-24T16:59:11;1.52;;;0.90;;
20589;SDS011;10453;50.810;12.540;2023-04-24T17:03:28;1.50;;;1.40;;
20589;SDS011;10453;50.810;12.540;2023-04-24T17:07:45;3.45;;;2.08;;
20589;SDS011;10453;50.810;12.540;2023-04-24T17:12:03;2.95;;;1.63;;
20589;SDS011;10453;50.810;12.540;2023-04-24T17:16:20;2.33;;;1.40;;
20589;SDS011;10453;50.810;12.540;2023-04-24T17:20:38;1.27;;;1.02;;
20589;SDS011;10453;50.810;12.540;2023-04-24T17:24:56;2.45;;;1.10;;
20589;SDS011;10453;50.810;12.540;2023-04-24T17:29:13;2.00;;;1.23;;
20589;SDS011;10453;50.810;12.540;2023-04-24T17:33:31;1.40;;;1.20;;
20589;SDS011;10453;50.810;12.540;2023-04-24T17:37:49;1.10;;;1.00;;
20589;SDS011;10453;50.810;12.540;2023-04-24T17:42:06;4.22;;;0.82;;
20589;SDS011;10453;50.810;12.540;2023-04-24T17:46:23;1.05;;;0.70;;
20589;SDS011;10453;50.810;12.540;2023-04-24T17:50:41;3.50;;;1.27;;
20589;SDS011;10453;50.810;12.540;2023-04-24T17:54:58;1.23;;;0.98;;
20589;SDS011;10453;50.810;12.540;2023-04-24T17:59:17;1.20;;;1.10;;
20589;SDS011;10453;50.810;12.540;2023-04-24T18:03:35;1.80;;;1.20;;
20589;SDS011;10453;50.810;12.540;2023-04-24T18:07:52;1.63;;;1.48;;
20589;SDS011;10453;50.810;12.540;2023-04-24T18:12:11;1.67;;;1.33;;
20589;SDS011;10453;50.810;12.540;2023-04-24T18:16:28;1.40;;;1.10;;
20589;SDS011;10453;50.810;12.540;2023-04-24T18:20:46;2.63;;;1.35;;
20589;SDS011;10453;50.810;12.540;2023-04-24T18:25:04;3.03;;;1.52;;
20589;SDS011;10453;50.810;12.540;2023-04-24T18:29:21;3.30;;;1.40;;
20589;SDS011;10453;50.810;12.540;2023-04-24T18:33:39;2.00;;;1.17;;
20589;SDS011;10453;50.810;12.540;2023-04-24T18:37:56;1.52;;;1.40;;
20589;SDS011;10453;50.810;12.540;2023-04-24T18:42:13;1.52;;;1.42;;
20589;SDS011;10453;50.810;12.540;2023-04-24T18:46:31;1.30;;;1.20;;
20589;SDS011;10453;50.810;12.540;2023-04-24T18:50:53;1.88;;;1.45;;
20589;SDS011;10453;50.810;12.540;2023-04-24T18:55:11;2.22;;;1.10;;
20589;SDS011;10453;50.810;12.540;2023-04-24T18:59:28;2.42;;;1.27;;
20589;SDS011;10453;50.810;12.540;2023-04-24T19:03:45;7.50;;;1.23;;
20589;SDS011;10453;50.810;12.540;2023-04-24T19:08:03;1.85;;;1.30;;
20589;SDS011;10453;50.810;12.540;2023-04-24T19:12:20;1.25;;;1.15;;
20589;SDS011;10453;50.810;12.540;2023-04-24T19:16:38;1.30;;;1.10;;
20589;SDS011;10453;50.810;12.540;2023-04-24T19:20:56;1.70;;;1.50;;
20589;SDS011;10453;50.810;12.540;2023-04-24T19:25:15;1.85;;;1.52;;
20589;SDS011;10453;50.810;12.540;2023-04-24T19:29:32;1.75;;;1.30;;
20589;SDS011;10453;50.810;12.540;2023-04-24T19:33:49;3.00;;;1.15;;
20589;SDS011;10453;50.810;12.540;2023-04-24T19:38:07;2.83;;;1.67;;
20589;SDS011;10453;50.810;12.540;2023-04-24T19:42:24;3.40;;;1.77;;
20589;SDS011;10453;50.810;12.540;2023-04-24T19:46:59;2.45;;;1.60;;
20589;SDS011;10453;50.810;12.540;2023-04-24T19:55:35;2.15;;;1.77;;
20589;SDS011;10453;50.810;12.540;2023-04-24T19:59:53;2.53;;;1.80;;
20589;SDS011;10453;50.810;12.540;2023-04-24T20:04:10;1.95;;;1.50;;
20589;SDS011;10453;50.810;12.540;2023-04-24T20:08:28;3.33;;;1.75;;
20589;SDS011;10453;50.810;12.540;2023-04-24T20:12:46;2.60;;;1.83;;
20589;SDS011;10453;50.810;12.540;2023-04-24T20:17:03;2.33;;;1.85;;
20589;SDS011;10453;50.810;12.540;2023-04-24T20:21:21;11.30;;;2.17;;
20589;SDS011;10453;50.810;12.540;2023-04-24T20:25:39;11.48;;;2.65;;
20589;SDS011;10453;50.810;12.540;2023-04-24T20:29:56;10.43;;;2.50;;
20589;SDS011;10453;50.810;12.540;2023-04-24T20:34:14;4.70;;;2.30;;
20589;SDS011;10453;50.810;12.540;2023-04-24T20:38:33;4.10;;;2.53;;
20589;SDS011;10453;50.810;12.540;2023-04-24T20:42:51;3.80;;;2.45;;
20589;SDS011;10453;50.810;12.540;2023-04-24T20:47:08;3.83;;;2.80;;
20589;SDS011;10453;50.810;12.540;2023-04-24T20:51:26;3.13;;;2.70;;
20589;SDS011;10453;50.810;12.540;2023-04-24T20:55:45;2.67;;;2.47;;
20589;SDS011;10453;50.810;12.540;2023-04-24T21:00:03;6.43;;;3.27;;
20589;SDS011;10453;50.810;12.540;2023-04-24T21:04:24;3.53;;;3.15;;
20589;SDS011;10453;50.810;12.540;2023-04-24T21:08:41;3.03;;;2.73;;
20589;SDS011;10453;50.810;12.540;2023-04-24T21:12:59;4.45;;;3.40;;
20589;SDS011;10453;50.810;12.540;2023-04-24T21:17:17;3.80;;;3.43;;
20589;SDS011;10453;50.810;12.540;2023-04-24T21:21:34;4.57;;;3.67;;
20589;SDS011;10453;50.810;12.540;2023-04-24T21:25:52;7.35;;;3.97;;
20589;SDS011;10453;50.810;12.540;2023-04-24T21:30:10;5.47;;;4.03;;
20589;SDS011;10453;50.810;12.540;2023-04-24T21:34:29;5.80;;;4.15;;
20589;SDS011;10453;50.810;12.540;2023-04-24T21:38:47;5.53;;;4.45;;
20589;SDS011;10453;50.810;12.540;2023-04-24T21:43:04;7.25;;;4.53;;
20589;SDS011;10453;50.810;12.540;2023-04-24T21:47:22;5.40;;;4.68;;
20589;SDS011;10453;50.810;12.540;2023-04-24T21:51:40;6.05;;;4.95;;
20589;SDS011;10453;50.810;12.540;2023-04-24T21:55:58;6.87;;;4.93;;
20589;SDS011;10453;50.810;12.540;2023-04-24T22:00:15;7.75;;;5.18;;
20589;SDS011;10453;50.810;12.540;2023-04-24T22:04:33;8.73;;;5.38;;
20589;SDS011;10453;50.810;12.540;2023-04-24T22:08:51;7.70;;;5.10;;
20589;SDS011;10453;50.810;12.540;2023-04-24T22:13:08;6.90;;;4.90;;
20589;SDS011;10453;50.810;12.540;2023-04-24T22:17:25;7.10;;;5.30;;
20589;SDS011;10453;50.810;12.540;2023-04-24T22:26:02;8.30;;;6.30;;
20589;SDS011;10453;50.810;12.540;2023-04-24T22:30:19;7.80;;;5.97;;
20589;SDS011;10453;50.810;12.540;2023-04-24T22:34:36;8.38;;;5.80;;
20589;SDS011;10453;50.810;12.540;2023-04-24T22:38:54;8.27;;;5.93;;
20589;SDS011;10453;50.810;12.540;2023-04-24T22:43:11;12.38;;;6.18;;
20589;SDS011;10453;50.810;12.540;2023-04-24T22:47:29;10.40;;;6.77;;
20589;SDS011;10453;50.810;12.540;2023-04-24T22:51:46;9.98;;;6.32;;
20589;SDS011;10453;50.810;12.540;2023-04-24T22:56:04;12.60;;;6.00;;
20589;SDS011;10453;50.810;12.540;2023-04-24T23:00:22;9.50;;;6.32;;
20589;SDS011;10453;50.810;12.540;2023-04-24T23:04:39;9.02;;;6.68;;
20589;SDS011;10453;50.810;12.540;2023-04-24T23:08:57;8.98;;;6.78;;
20589;SDS011;10453;50.810;12.540;2023-04-24T23:13:14;8.88;;;6.53;;
20589;SDS011;10453;50.810;12.540;2023-04-24T23:17:31;10.68;;;7.55;;
20589;SDS011;10453;50.810;12.540;2023-04-24T23:21:49;12.95;;;7.45;;
20589;SDS011;10453;50.810;12.540;2023-04-24T23:26:07;10.88;;;7.18;;
20589;SDS011;10453;50.810;12.540;2023-04-24T23:30:24;11.82;;;7.13;;
20589;SDS011;10453;50.810;12.540;2023-04-24T23:34:42;13.15;;;7.50;;
20589;SDS011;10453;50.810;12.540;2023-04-24T23:38:59;12.73;;;8.38;;
20589;SDS011;10453;50.810;12.540;2023-04-24T23:43:17;13.90;;;8.07;;
20589;SDS011;10453;50.810;12.540;2023-04-24T23:47:35;10.90;;;7.90;;
20589;SDS011;10453;50.810;12.540;2023-04-24T23:51:53;12.60;;;8.05;;
20589;SDS011;10453;50.810;12.540;2023-04-24T23:56:11;13.57;;;8.23;;
